createdAt,value
2018-03-24T00:00:45.909Z,15.73
2018-03-24T00:03:14.586Z,16.45
2018-03-24T00:05:43.350Z,12.30
2018-03-24T00:08:11.964Z,15.68
2018-03-24T00:10:40.689Z,16.75
2018-03-24T00:13:09.314Z,12.25
2018-03-24T00:15:38.031Z,12.10
2018-03-24T00:18:06.753Z,11.60
2018-03-24T00:20:35.476Z,13.70
2018-03-24T00:23:04.322Z,9.90
2018-03-24T00:25:32.935Z,12.77
2018-03-24T00:28:01.643Z,12.35
2018-03-24T00:30:30.363Z,15.90
2018-03-24T00:32:59.085Z,14.18
2018-03-24T00:35:27.678Z,15.48
2018-03-24T00:37:56.864Z,14.73
2018-03-24T00:40:25.566Z,13.50
2018-03-24T00:42:54.274Z,12.20
2018-03-24T00:45:22.894Z,14.45
2018-03-24T00:47:51.530Z,11.07
2018-03-24T00:50:20.240Z,13.38
2018-03-24T00:52:48.839Z,16.80
2018-03-24T00:55:17.481Z,14.80
2018-03-24T00:57:46.204Z,12.37
2018-03-24T01:00:14.835Z,17.67
2018-03-24T01:02:43.751Z,21.20
2018-03-24T01:05:13.081Z,18.83
2018-03-24T01:07:41.794Z,20.45
2018-03-24T01:10:11.097Z,20.95
2018-03-24T01:12:40.343Z,18.08
2018-03-24T01:15:09.063Z,21.37
2018-03-24T01:17:37.785Z,17.62
2018-03-24T01:20:06.410Z,19.83
2018-03-24T01:22:35.105Z,21.92
2018-03-24T01:25:03.753Z,15.63
2018-03-24T01:27:32.473Z,16.33
2018-03-24T01:30:01.095Z,16.37
2018-03-24T01:32:29.733Z,14.10
2018-03-24T01:34:58.287Z,16.95
2018-03-24T01:37:26.961Z,15.43
2018-03-24T01:39:55.584Z,18.17
2018-03-24T01:42:24.155Z,16.15
2018-03-24T01:44:52.845Z,19.45
2018-03-24T01:47:21.423Z,29.42
2018-03-24T01:49:50.170Z,33.08
2018-03-24T01:52:18.787Z,34.55
2018-03-24T01:54:47.410Z,37.30
2018-03-24T01:57:16.030Z,33.50
2018-03-24T01:59:44.825Z,34.95
2018-03-24T02:02:13.548Z,32.05
2018-03-24T02:04:42.295Z,34.47
2018-03-24T02:07:10.915Z,36.03
2018-03-24T02:09:39.945Z,33.38
2018-03-24T02:12:08.571Z,32.55
2018-03-24T02:14:37.276Z,34.75
2018-03-24T02:17:05.833Z,32.88
2018-03-24T02:19:34.547Z,34.97
2018-03-24T02:22:03.221Z,35.63
2018-03-24T02:24:32.071Z,35.30
2018-03-24T02:27:00.793Z,34.88
2018-03-24T02:29:29.429Z,36.08
2018-03-24T02:31:57.986Z,35.22
2018-03-24T02:34:26.760Z,34.72
2018-03-24T02:36:55.581Z,37.92
2018-03-24T02:39:24.303Z,35.38
2018-03-24T02:41:53.584Z,32.47
2018-03-24T02:44:22.349Z,21.20
2018-03-24T02:46:50.953Z,24.00
2018-03-24T02:49:19.698Z,18.50
2018-03-24T02:51:48.393Z,16.77
2018-03-24T02:54:16.930Z,15.98
2018-03-24T02:56:45.727Z,16.83
2018-03-24T02:59:14.481Z,15.75
2018-03-24T03:01:43.100Z,16.33
2018-03-24T03:04:11.779Z,15.55
2018-03-24T03:06:40.548Z,15.30
2018-03-24T03:09:09.178Z,16.15
2018-03-24T03:11:37.891Z,13.85
2018-03-24T03:14:06.564Z,15.93
2018-03-24T03:16:35.534Z,17.20
2018-03-24T03:19:04.157Z,15.73
2018-03-24T03:21:53.059Z,20.12
2018-03-24T03:24:21.668Z,17.02
2018-03-24T03:26:50.266Z,15.88
2018-03-24T03:29:19.011Z,13.80
2018-03-24T03:31:53.455Z,16.77
2018-03-24T03:34:22.278Z,16.45
2018-03-24T03:36:50.999Z,17.33
2018-03-24T03:39:21.026Z,13.60
2018-03-24T03:41:49.750Z,14.45
2018-03-24T03:44:18.369Z,12.23
2018-03-24T03:46:46.992Z,12.07
2018-03-24T03:49:15.713Z,13.57
2018-03-24T03:51:44.435Z,11.48
2018-03-24T03:54:13.155Z,12.07
2018-03-24T03:56:41.734Z,12.48
2018-03-24T03:59:10.307Z,11.35
2018-03-24T04:01:39.021Z,10.88
2018-03-24T04:04:07.670Z,11.77
2018-03-24T04:06:36.465Z,12.40
2018-03-24T04:09:05.250Z,9.90
2018-03-24T04:11:35.045Z,11.43
2018-03-24T04:14:03.739Z,12.80
2018-03-24T04:16:32.454Z,10.63
2018-03-24T04:19:01.178Z,11.90
2018-03-24T04:21:29.813Z,12.23
2018-03-24T04:23:58.438Z,11.52
2018-03-24T04:26:27.069Z,12.70
2018-03-24T04:28:56.565Z,12.02
2018-03-24T04:31:25.491Z,13.00
2018-03-24T04:33:54.591Z,10.75
2018-03-24T04:36:23.333Z,11.65
2018-03-24T04:38:52.057Z,12.65
2018-03-24T04:41:20.778Z,12.75
2018-03-24T04:43:49.363Z,11.52
2018-03-24T04:46:18.032Z,11.25
2018-03-24T04:48:46.660Z,12.07
2018-03-24T04:51:15.309Z,13.07
2018-03-24T04:53:44.670Z,11.77
2018-03-24T04:56:13.331Z,12.00
2018-03-24T04:58:42.030Z,13.07
2018-03-24T05:01:10.696Z,12.90
2018-03-24T05:03:39.395Z,15.85
2018-03-24T05:06:08.099Z,15.80
2018-03-24T05:08:36.819Z,13.40
2018-03-24T05:11:05.541Z,13.52
2018-03-24T05:13:34.087Z,14.98
2018-03-24T05:16:02.686Z,16.33
2018-03-24T05:18:31.304Z,15.63
2018-03-24T05:21:00.028Z,26.40
2018-03-24T05:23:28.750Z,14.13
2018-03-24T05:25:57.479Z,22.02
2018-03-24T05:28:26.192Z,25.60
2018-03-24T05:30:54.918Z,28.80
2018-03-24T05:33:23.550Z,23.92
2018-03-24T05:35:52.156Z,29.48
2018-03-24T05:38:21.483Z,29.95
2018-03-24T05:40:50.209Z,29.83
2018-03-24T05:43:18.927Z,34.83
2018-03-24T05:45:47.654Z,30.45
2018-03-24T05:48:16.370Z,27.52
2018-03-24T05:50:45.093Z,17.60
2018-03-24T05:53:13.725Z,20.88
2018-03-24T05:55:43.307Z,27.05
2018-03-24T05:58:12.059Z,23.08
2018-03-24T06:00:40.784Z,14.82
2018-03-24T06:03:10.095Z,13.62
2018-03-24T06:05:38.827Z,15.75
2018-03-24T06:08:08.058Z,14.27
2018-03-24T06:10:36.732Z,13.98
2018-03-24T06:13:05.396Z,16.00
2018-03-24T06:15:34.060Z,19.02
2018-03-24T06:18:02.632Z,14.52
2018-03-24T06:20:31.461Z,15.55
2018-03-24T06:23:00.190Z,14.80
2018-03-24T06:25:29.006Z,13.32
2018-03-24T06:27:57.728Z,8.77
2018-03-24T06:30:26.856Z,11.77
2018-03-24T06:32:55.673Z,10.75
2018-03-24T06:35:24.898Z,13.07
2018-03-24T06:37:53.684Z,12.65
2018-03-24T06:40:22.340Z,16.85
2018-03-24T06:42:51.163Z,15.65
2018-03-24T06:45:19.708Z,21.58
2018-03-24T06:47:49.409Z,19.55
2018-03-24T06:50:18.058Z,21.52
2018-03-24T06:52:46.732Z,10.05
2018-03-24T06:55:15.379Z,10.93
2018-03-24T06:57:44.105Z,10.85
2018-03-24T07:00:12.824Z,14.60
2018-03-24T07:02:41.641Z,11.48
2018-03-24T07:05:10.363Z,14.60
2018-03-24T07:07:38.981Z,13.40
2018-03-24T07:10:08.232Z,19.00
2018-03-24T07:12:36.828Z,15.40
2018-03-24T07:15:05.551Z,13.67
2018-03-24T07:17:34.273Z,17.48
2018-03-24T07:20:02.893Z,18.17
2018-03-24T07:22:31.583Z,23.20
2018-03-24T07:25:00.137Z,21.55
2018-03-24T07:27:28.859Z,17.55
2018-03-24T07:29:57.487Z,20.67
2018-03-24T07:32:26.100Z,21.17
2018-03-24T07:34:55.288Z,15.13
2018-03-24T07:37:24.051Z,15.70
2018-03-24T07:39:52.768Z,17.37
2018-03-24T07:42:21.490Z,27.40
2018-03-24T07:44:50.120Z,18.33
2018-03-24T07:47:18.738Z,19.98
2018-03-24T07:49:47.456Z,19.87
2018-03-24T07:52:16.152Z,18.52
2018-03-24T07:54:45.602Z,15.18
2018-03-24T07:57:14.285Z,18.35
2018-03-24T07:59:46.960Z,20.53
2018-03-24T08:02:15.637Z,42.87
2018-03-24T08:04:44.250Z,21.07
2018-03-24T08:07:12.937Z,21.47
2018-03-24T08:09:41.628Z,19.07
2018-03-24T08:12:10.234Z,19.50
2018-03-24T08:14:38.993Z,24.77
2018-03-24T08:17:09.518Z,24.50
2018-03-24T08:19:38.242Z,26.47
2018-03-24T08:22:06.867Z,25.17
2018-03-24T08:24:35.573Z,21.73
2018-03-24T08:27:04.411Z,21.27
2018-03-24T08:29:33.127Z,25.90
2018-03-24T08:32:01.851Z,24.03
2018-03-24T08:34:30.445Z,26.50
2018-03-24T08:36:59.152Z,26.13
2018-03-24T08:39:27.915Z,17.80
2018-03-24T08:41:56.638Z,16.17
2018-03-24T08:44:25.223Z,17.27
2018-03-24T08:46:53.880Z,19.37
2018-03-24T08:49:22.606Z,23.10
2018-03-24T08:51:51.302Z,33.23
2018-03-24T08:54:20.067Z,28.30
2018-03-24T08:56:48.709Z,26.13
2018-03-24T08:59:17.496Z,30.67
2018-03-24T09:01:46.219Z,28.40
2018-03-24T09:04:14.937Z,24.33
2018-03-24T09:06:43.655Z,25.43
2018-03-24T09:09:12.284Z,26.77
2018-03-24T09:11:40.936Z,27.13
2018-03-24T09:14:09.626Z,25.47
2018-03-24T09:16:38.342Z,28.03
2018-03-24T09:19:07.065Z,32.27
2018-03-24T09:21:35.785Z,38.73
2018-03-24T09:24:04.531Z,24.50
2018-03-24T09:26:33.232Z,27.53
2018-03-24T09:29:01.951Z,25.27
2018-03-24T09:31:30.776Z,25.50
2018-03-24T09:33:59.499Z,22.13
2018-03-24T09:36:28.141Z,24.60
2018-03-24T09:38:56.863Z,24.00
2018-03-24T09:41:25.481Z,36.00
2018-03-24T09:43:54.098Z,18.50
2018-03-24T09:46:22.805Z,20.37
2018-03-24T09:48:51.437Z,20.03
2018-03-24T09:51:20.170Z,19.43
2018-03-24T09:53:48.872Z,22.87
2018-03-24T09:56:17.694Z,25.37
2018-03-24T09:58:46.414Z,23.43
2018-03-24T10:01:15.137Z,23.90
2018-03-24T10:03:43.857Z,22.67
2018-03-24T10:06:12.683Z,25.50
2018-03-24T10:08:41.408Z,19.37
2018-03-24T10:11:10.926Z,20.20
2018-03-24T10:13:41.228Z,21.67
2018-03-24T10:16:10.580Z,23.90
2018-03-24T10:18:39.197Z,22.90
2018-03-24T10:24:27.497Z,15.27
2018-03-24T10:26:56.245Z,15.97
2018-03-24T10:29:24.965Z,15.57
2018-03-24T10:31:53.532Z,15.67
2018-03-24T10:34:22.311Z,14.90
2018-03-24T10:36:50.939Z,12.60
2018-03-24T10:39:19.657Z,15.67
2018-03-24T10:41:48.440Z,17.17
2018-03-24T10:44:17.098Z,11.97
2018-03-24T10:46:45.819Z,19.97
2018-03-24T10:49:14.440Z,18.10
2018-03-24T10:51:43.261Z,14.23
2018-03-24T10:54:11.796Z,19.00
2018-03-24T10:56:40.509Z,15.30
2018-03-24T10:59:09.161Z,16.90
2018-03-24T11:01:37.821Z,17.83
2018-03-24T11:04:06.494Z,22.87
2018-03-24T11:06:35.192Z,18.47
2018-03-24T11:09:04.017Z,20.80
2018-03-24T11:11:33.296Z,17.67
2018-03-24T11:14:02.061Z,20.20
2018-03-24T11:16:30.710Z,18.97
2018-03-24T11:18:59.363Z,18.27
2018-03-24T11:21:28.030Z,22.00
2018-03-24T11:23:56.619Z,21.23
2018-03-24T11:26:25.248Z,15.90
2018-03-24T11:28:54.094Z,28.93
2018-03-24T11:31:22.812Z,19.07
2018-03-24T11:33:51.512Z,15.27
2018-03-24T11:36:21.460Z,20.07
2018-03-24T11:38:50.184Z,18.80
2018-03-24T11:41:18.804Z,21.77
2018-03-24T11:43:47.446Z,18.93
2018-03-24T11:46:16.147Z,13.73
2018-03-24T11:48:44.969Z,16.70
2018-03-24T11:51:14.210Z,16.27
2018-03-24T11:53:46.948Z,16.30
2018-03-24T11:56:15.663Z,16.27
2018-03-24T11:58:44.476Z,18.40
2018-03-24T12:01:13.093Z,16.33
2018-03-24T12:03:41.817Z,16.43
2018-03-24T12:06:10.386Z,19.53
2018-03-24T12:08:39.046Z,17.43
2018-03-24T12:11:07.685Z,16.03
2018-03-24T12:13:36.237Z,13.90
2018-03-24T12:16:06.331Z,15.23
2018-03-24T12:18:35.051Z,19.13
2018-03-24T12:21:04.003Z,17.50
2018-03-24T12:23:32.671Z,17.67
2018-03-24T12:26:01.421Z,20.27
2018-03-24T12:28:30.058Z,22.20
2018-03-24T12:30:58.847Z,18.33
2018-03-24T12:33:27.427Z,23.20
2018-03-24T12:35:56.204Z,27.80
2018-03-24T12:38:24.927Z,18.80
2018-03-24T12:40:53.555Z,16.37
2018-03-24T12:43:22.276Z,18.17
2018-03-24T12:45:50.893Z,19.07
2018-03-24T12:48:19.617Z,14.77
2018-03-24T12:50:48.539Z,16.97
2018-03-24T12:53:17.266Z,17.17
2018-03-24T12:55:46.885Z,19.77
2018-03-24T12:58:15.559Z,17.90
2018-03-24T13:00:44.137Z,18.73
2018-03-24T13:03:12.950Z,19.12
2018-03-24T13:05:41.591Z,23.07
2018-03-24T13:08:10.294Z,19.60
2018-03-24T13:10:38.934Z,21.48
2018-03-24T13:13:07.739Z,20.47
2018-03-24T13:15:36.333Z,18.57
2018-03-24T13:18:05.109Z,18.40
2018-03-24T13:20:33.724Z,16.77
2018-03-24T13:23:02.393Z,21.62
2018-03-24T13:25:31.143Z,22.67
2018-03-24T13:27:59.827Z,19.77
2018-03-24T13:30:28.587Z,18.80
2018-03-24T13:32:57.319Z,19.60
2018-03-24T13:35:26.935Z,15.03
2018-03-24T13:37:55.658Z,22.10
2018-03-24T13:40:24.362Z,46.53
2018-03-24T13:42:53.021Z,19.48
2018-03-24T13:45:21.822Z,20.75
2018-03-24T13:47:50.544Z,16.03
2018-03-24T13:50:19.127Z,19.80
2018-03-24T13:52:48.692Z,15.03
2018-03-24T13:55:17.344Z,16.27
2018-03-24T13:57:46.134Z,17.55
2018-03-24T14:00:16.864Z,16.67
2018-03-24T14:02:45.563Z,15.53
2018-03-24T14:05:14.308Z,15.43
2018-03-24T14:07:43.867Z,16.12
2018-03-24T14:10:12.556Z,18.33
2018-03-24T14:12:41.380Z,16.80
2018-03-24T14:15:10.099Z,14.45
2018-03-24T14:17:38.823Z,17.35
2018-03-24T14:20:07.450Z,16.37
2018-03-24T14:22:36.142Z,16.75
2018-03-24T14:25:04.804Z,16.52
2018-03-24T14:27:33.421Z,16.83
2018-03-24T14:30:02.029Z,14.63
2018-03-24T14:32:31.733Z,17.00
2018-03-24T14:35:00.383Z,16.85
2018-03-24T14:37:28.997Z,19.55
2018-03-24T14:39:57.623Z,17.08
2018-03-24T14:42:26.248Z,12.82
2018-03-24T14:44:55.674Z,13.95
2018-03-24T14:47:25.068Z,13.93
2018-03-24T14:49:53.671Z,14.43
2018-03-24T14:52:22.217Z,16.58
2018-03-24T14:54:50.881Z,21.70
2018-03-24T14:57:19.479Z,15.07
2018-03-24T14:59:48.047Z,16.98
2018-03-24T15:02:17.285Z,19.52
2018-03-24T15:04:45.885Z,29.83
2018-03-24T15:07:14.456Z,19.50
2018-03-24T15:09:43.084Z,24.27
2018-03-24T15:12:11.643Z,20.10
2018-03-24T15:14:41.176Z,23.42
2018-03-24T15:17:09.786Z,24.73
2018-03-24T15:19:38.370Z,20.77
2018-03-24T15:22:07.097Z,16.05
2018-03-24T15:24:35.836Z,18.20
2018-03-24T15:27:04.441Z,19.65
2018-03-24T15:29:44.747Z,17.60
2018-03-24T15:32:25.065Z,30.60
2018-03-24T15:35:05.311Z,18.42
2018-03-24T15:37:33.874Z,18.70
2018-03-24T15:40:02.443Z,15.10
2018-03-24T15:42:31.751Z,16.02
2018-03-24T15:45:00.423Z,16.87
2018-03-24T15:47:29.037Z,17.67
2018-03-24T15:49:57.657Z,20.35
2018-03-24T15:52:26.208Z,16.02
2018-03-24T15:54:54.815Z,21.48
2018-03-24T15:57:23.402Z,22.55
2018-03-24T15:59:52.050Z,22.77
2018-03-24T16:02:20.675Z,23.85
2018-03-24T16:04:49.273Z,22.73
2018-03-24T16:07:17.962Z,24.55
2018-03-24T16:09:46.543Z,19.83
2018-03-24T16:12:15.107Z,19.85
2018-03-24T16:14:43.659Z,25.27
2018-03-24T16:17:12.315Z,20.98
2018-03-24T16:19:41.608Z,19.70
2018-03-24T16:22:10.239Z,18.90
2018-03-24T16:24:38.972Z,21.50
2018-03-24T16:27:07.590Z,23.92
2018-03-24T16:29:36.206Z,18.37
2018-03-24T16:32:05.027Z,25.52
2018-03-24T16:34:33.854Z,21.15
2018-03-24T16:37:02.470Z,22.48
2018-03-24T16:39:31.095Z,23.60
2018-03-24T16:41:59.671Z,24.85
2018-03-24T16:44:28.369Z,97.43
2018-03-24T16:46:56.963Z,22.70
2018-03-24T16:49:25.603Z,22.83
2018-03-24T16:51:54.301Z,21.37
2018-03-24T16:54:22.849Z,24.95
2018-03-24T16:56:51.442Z,25.37
2018-03-24T16:59:20.168Z,27.40
2018-03-24T17:01:48.739Z,27.80
2018-03-24T17:04:17.416Z,25.67
2018-03-24T17:06:45.970Z,28.52
2018-03-24T17:09:14.569Z,33.20
2018-03-24T17:11:43.191Z,33.30
2018-03-24T17:14:11.830Z,32.38
2018-03-24T17:16:40.718Z,45.63
2018-03-24T17:19:09.299Z,39.63
2018-03-24T17:21:37.971Z,42.00
2018-03-24T17:24:07.166Z,49.65
2018-03-24T17:26:35.743Z,52.95
2018-03-24T17:29:04.327Z,63.63
2018-03-24T17:31:32.917Z,68.78
2018-03-24T17:34:01.543Z,80.03
2018-03-24T17:36:30.155Z,82.80
2018-03-24T17:38:58.814Z,75.10
2018-03-24T17:41:27.538Z,66.82
2018-03-24T17:43:56.099Z,61.63
2018-03-24T17:46:24.678Z,73.82
2018-03-24T17:48:53.362Z,64.30
2018-03-24T17:51:22.021Z,73.55
2018-03-24T17:53:50.617Z,95.12
2018-03-24T17:56:20.170Z,99.47
2018-03-24T17:58:48.791Z,96.53
2018-03-24T18:01:17.468Z,104.35
2018-03-24T18:03:46.067Z,95.93
2018-03-24T18:06:14.633Z,100.05
2018-03-24T18:08:43.176Z,94.95
2018-03-24T18:11:11.758Z,72.82
2018-03-24T18:13:40.304Z,62.65
2018-03-24T18:16:08.888Z,70.37
2018-03-24T18:18:37.451Z,50.83
2018-03-24T18:21:06.182Z,58.60
2018-03-24T18:23:34.804Z,50.72
2018-03-24T18:26:03.340Z,45.85
2018-03-24T18:28:32.659Z,44.17
2018-03-24T18:31:01.349Z,48.00
2018-03-24T18:33:29.915Z,43.55
2018-03-24T18:35:58.615Z,44.58
2018-03-24T18:38:28.106Z,43.45
2018-03-24T18:40:56.658Z,41.90
2018-03-24T18:43:25.359Z,45.50
2018-03-24T18:45:53.972Z,44.17
2018-03-24T18:48:22.514Z,44.30
2018-03-24T18:50:51.353Z,46.75
2018-03-24T18:53:19.986Z,44.72
2018-03-24T18:55:48.691Z,48.63
2018-03-24T18:58:17.259Z,45.65
2018-03-24T19:00:45.830Z,42.85
2018-03-24T19:03:14.419Z,43.97
2018-03-24T19:05:43.245Z,44.28
2018-03-24T19:08:11.926Z,46.72
2018-03-24T19:10:40.453Z,43.63
2018-03-24T19:13:09.001Z,46.15
2018-03-24T19:15:37.601Z,44.85
2018-03-24T19:18:06.222Z,108.07
2018-03-24T19:20:34.798Z,71.07
2018-03-24T19:23:03.693Z,57.28
2018-03-24T19:25:32.274Z,65.47
2018-03-24T19:28:00.870Z,44.90
2018-03-24T19:30:29.463Z,42.72
2018-03-24T19:32:58.046Z,40.12
2018-03-24T19:35:26.613Z,49.22
2018-03-24T19:37:55.256Z,46.70
2018-03-24T19:40:23.880Z,75.90
2018-03-24T19:42:52.510Z,116.68
2018-03-24T19:45:21.132Z,91.40
2018-03-24T19:47:49.813Z,106.15
2018-03-24T19:50:18.354Z,85.72
2018-03-24T19:52:47.088Z,54.17
2018-03-24T19:55:16.331Z,51.00
2018-03-24T19:57:44.943Z,44.95
2018-03-24T20:00:13.601Z,45.35
2018-03-24T20:02:42.376Z,54.03
2018-03-24T20:05:11.002Z,42.95
2018-03-24T20:07:39.579Z,39.53
2018-03-24T20:10:08.199Z,42.88
2018-03-24T20:12:36.774Z,41.67
2018-03-24T20:15:05.405Z,39.88
2018-03-24T20:17:34.111Z,38.45
2018-03-24T20:20:02.651Z,41.63
2018-03-24T20:22:31.235Z,42.45
2018-03-24T20:24:59.867Z,44.72
2018-03-24T20:27:28.473Z,41.95
2018-03-24T20:29:57.211Z,43.40
2018-03-24T20:32:26.637Z,48.42
2018-03-24T20:34:55.179Z,52.65
2018-03-24T20:37:23.727Z,53.63
2018-03-24T20:39:52.410Z,53.75
2018-03-24T20:42:21.034Z,52.42
2018-03-24T20:44:49.638Z,96.68
2018-03-24T20:47:18.180Z,103.50
2018-03-24T20:49:46.892Z,100.87
2018-03-24T20:52:15.494Z,95.35
2018-03-24T20:54:44.023Z,85.70
2018-03-24T20:57:12.650Z,86.43
2018-03-24T20:59:41.284Z,80.97
2018-03-24T21:02:09.844Z,92.40
2018-03-24T21:04:38.982Z,98.15
2018-03-24T21:07:07.642Z,93.53
2018-03-24T21:09:36.239Z,77.82
2018-03-24T21:12:04.796Z,84.30
2018-03-24T21:14:33.528Z,80.38
2018-03-24T21:17:02.079Z,89.65
2018-03-24T21:19:30.608Z,74.32
2018-03-24T21:21:59.195Z,69.87
2018-03-24T21:24:27.740Z,66.28
2018-03-24T21:26:56.323Z,73.53
2018-03-24T21:29:24.940Z,72.97
2018-03-24T21:31:53.519Z,77.10
2018-03-24T21:34:22.066Z,66.18
2018-03-24T21:36:51.621Z,83.87
2018-03-24T21:39:20.166Z,88.35
2018-03-24T21:41:48.744Z,85.30
2018-03-24T21:44:17.407Z,104.05
2018-03-24T21:46:46.042Z,81.00
2018-03-24T21:49:14.588Z,87.05
2018-03-24T21:51:43.260Z,90.90
2018-03-24T21:54:11.826Z,92.78
2018-03-24T21:56:40.514Z,96.70
2018-03-24T21:59:09.046Z,93.82
2018-03-24T22:01:37.627Z,88.07
2018-03-24T22:04:06.335Z,109.22
2018-03-24T22:06:34.939Z,96.47
2018-03-24T22:09:04.240Z,88.57
2018-03-24T22:11:32.941Z,94.50
2018-03-24T22:14:01.491Z,86.82
2018-03-24T22:16:30.078Z,111.88
2018-03-24T22:18:58.764Z,267.00
2018-03-24T22:21:27.354Z,192.10
2018-03-24T22:23:55.928Z,108.57
2018-03-24T22:26:24.539Z,89.97
2018-03-24T22:28:53.095Z,86.37
2018-03-24T22:31:21.771Z,94.03
2018-03-24T22:33:51.688Z,85.50
2018-03-24T22:36:20.392Z,89.53
2018-03-24T22:38:50.160Z,87.12
2018-03-24T22:41:18.859Z,94.47
2018-03-24T22:43:47.413Z,91.20
2018-03-24T22:46:15.975Z,91.25
2018-03-24T22:48:44.577Z,82.82
2018-03-24T22:51:13.139Z,74.72
2018-03-24T22:53:42.409Z,78.93
2018-03-24T22:56:11.005Z,85.80
2018-03-24T22:58:40.431Z,73.72
2018-03-24T23:01:09.079Z,72.93
2018-03-24T23:03:37.656Z,73.20
2018-03-24T23:06:06.320Z,67.95
2018-03-24T23:08:34.870Z,75.18
2018-03-24T23:11:03.584Z,99.18
2018-03-24T23:13:32.138Z,87.25
2018-03-24T23:16:00.832Z,99.35
2018-03-24T23:18:29.975Z,103.40
2018-03-24T23:20:58.584Z,105.90
2018-03-24T23:23:30.423Z,91.12
2018-03-24T23:25:59.029Z,87.57
2018-03-24T23:28:28.510Z,81.47
2018-03-24T23:30:57.209Z,69.45
2018-03-24T23:33:25.766Z,66.65
2018-03-24T23:35:54.361Z,67.15
2018-03-24T23:38:22.926Z,63.13
2018-03-24T23:40:51.539Z,62.38
2018-03-24T23:43:20.894Z,60.92
2018-03-24T23:45:49.575Z,50.63
2018-03-24T23:48:18.191Z,53.08
2018-03-24T23:50:47.461Z,52.08
2018-03-24T23:53:16.142Z,53.78
2018-03-24T23:55:44.726Z,52.10
2018-03-24T23:58:13.279Z,52.03
